sensor_id;sensor_type;location;lat;lon;timestamp;P1;durP1;ratioP1;P2;durP2;ratioP2
61756;SDS011;57225;61.460;24.060;2023-12-14T00:01:48;8.15;;;3.45;;
61756;SDS011;57225;61.460;24.060;2023-12-14T00:04:33;8.35;;;3.67;;
61756;SDS011;57225;61.460;24.060;2023-12-14T00:07:17;7.70;;;3.15;;
61756;SDS011;57225;61.460;24.060;2023-12-14T00:10:02;6.13;;;3.15;;
61756;SDS011;57225;61.460;24.060;2023-12-14T00:12:48;7.45;;;3.38;;
61756;SDS011;57225;61.460;24.060;2023-12-14T00:15:34;8.93;;;3.58;;
61756;SDS011;57225;61.460;24.060;2023-12-14T00:18:19;8.27;;;3.35;;
61756;SDS011;57225;61.460;24.060;2023-12-14T00:21:04;9.23;;;3.88;;
61756;SDS011;57225;61.460;24.060;2023-12-14T00:23:49;9.55;;;3.78;;
61756;SDS011;57225;61.460;24.060;2023-12-14T00:26:33;8.23;;;3.30;;
61756;SDS011;57225;61.460;24.060;2023-12-14T00:29:18;9.88;;;3.58;;
61756;SDS011;57225;61.460;24.060;2023-12-14T00:32:02;12.13;;;3.42;;
61756;SDS011;57225;61.460;24.060;2023-12-14T00:34:47;7.47;;;3.25;;
61756;SDS011;57225;61.460;24.060;2023-12-14T00:37:32;8.63;;;3.75;;
61756;SDS011;57225;61.460;24.060;2023-12-14T00:40:17;6.82;;;3.20;;
61756;SDS011;57225;61.460;24.060;2023-12-14T00:43:01;7.75;;;3.35;;
61756;SDS011;57225;61.460;24.060;2023-12-14T00:46:04;8.43;;;3.20;;
61756;SDS011;57225;61.460;24.060;2023-12-14T00:48:49;5.85;;;3.08;;
61756;SDS011;57225;61.460;24.060;2023-12-14T00:51:33;9.13;;;4.00;;
61756;SDS011;57225;61.460;24.060;2023-12-14T00:54:17;8.00;;;2.80;;
61756;SDS011;57225;61.460;24.060;2023-12-14T00:57:02;7.45;;;3.50;;
61756;SDS011;57225;61.460;24.060;2023-12-14T00:59:47;7.45;;;3.53;;
61756;SDS011;57225;61.460;24.060;2023-12-14T01:02:31;12.50;;;3.60;;
61756;SDS011;57225;61.460;24.060;2023-12-14T01:05:16;7.38;;;3.20;;
61756;SDS011;57225;61.460;24.060;2023-12-14T01:08:00;7.75;;;3.10;;
61756;SDS011;57225;61.460;24.060;2023-12-14T01:10:45;7.30;;;3.25;;
61756;SDS011;57225;61.460;24.060;2023-12-14T01:13:29;10.32;;;3.90;;
61756;SDS011;57225;61.460;24.060;2023-12-14T01:16:14;7.65;;;3.22;;
61756;SDS011;57225;61.460;24.060;2023-12-14T01:18:58;7.68;;;3.03;;
61756;SDS011;57225;61.460;24.060;2023-12-14T01:21:43;6.85;;;3.35;;
61756;SDS011;57225;61.460;24.060;2023-12-14T01:24:28;8.80;;;3.70;;
61756;SDS011;57225;61.460;24.060;2023-12-14T01:27:12;11.00;;;3.42;;
61756;SDS011;57225;61.460;24.060;2023-12-14T01:29:58;9.27;;;4.00;;
61756;SDS011;57225;61.460;24.060;2023-12-14T01:32:42;7.65;;;3.17;;
61756;SDS011;57225;61.460;24.060;2023-12-14T01:35:26;9.73;;;3.92;;
61756;SDS011;57225;61.460;24.060;2023-12-14T01:38:13;11.80;;;3.97;;
61756;SDS011;57225;61.460;24.060;2023-12-14T01:40:57;9.00;;;3.55;;
61756;SDS011;57225;61.460;24.060;2023-12-14T01:43:42;11.60;;;3.70;;
61756;SDS011;57225;61.460;24.060;2023-12-14T01:46:27;8.88;;;3.55;;
61756;SDS011;57225;61.460;24.060;2023-12-14T01:49:12;8.88;;;3.72;;
61756;SDS011;57225;61.460;24.060;2023-12-14T01:51:56;7.63;;;3.83;;
61756;SDS011;57225;61.460;24.060;2023-12-14T01:54:41;13.52;;;4.38;;
61756;SDS011;57225;61.460;24.060;2023-12-14T01:57:25;11.02;;;3.70;;
61756;SDS011;57225;61.460;24.060;2023-12-14T02:00:12;13.18;;;4.38;;
61756;SDS011;57225;61.460;24.060;2023-12-14T02:03:13;10.13;;;3.30;;
61756;SDS011;57225;61.460;24.060;2023-12-14T02:05:59;9.73;;;3.75;;
61756;SDS011;57225;61.460;24.060;2023-12-14T02:08:44;9.80;;;3.70;;
61756;SDS011;57225;61.460;24.060;2023-12-14T02:11:28;9.43;;;3.83;;
61756;SDS011;57225;61.460;24.060;2023-12-14T02:14:13;9.57;;;3.65;;
61756;SDS011;57225;61.460;24.060;2023-12-14T02:16:57;10.70;;;4.28;;
61756;SDS011;57225;61.460;24.060;2023-12-14T02:19:42;10.82;;;3.83;;
61756;SDS011;57225;61.460;24.060;2023-12-14T02:22:26;9.32;;;3.92;;
61756;SDS011;57225;61.460;24.060;2023-12-14T02:25:11;8.77;;;3.97;;
61756;SDS011;57225;61.460;24.060;2023-12-14T02:27:55;10.43;;;4.10;;
61756;SDS011;57225;61.460;24.060;2023-12-14T02:30:39;10.27;;;3.50;;
61756;SDS011;57225;61.460;24.060;2023-12-14T02:33:24;8.88;;;3.38;;
61756;SDS011;57225;61.460;24.060;2023-12-14T02:36:08;11.75;;;3.97;;
61756;SDS011;57225;61.460;24.060;2023-12-14T02:38:53;9.82;;;3.80;;
61756;SDS011;57225;61.460;24.060;2023-12-14T02:41:37;9.80;;;3.55;;
61756;SDS011;57225;61.460;24.060;2023-12-14T02:44:22;11.38;;;3.88;;
61756;SDS011;57225;61.460;24.060;2023-12-14T02:47:06;12.95;;;4.30;;
61756;SDS011;57225;61.460;24.060;2023-12-14T02:49:51;11.52;;;4.40;;
61756;SDS011;57225;61.460;24.060;2023-12-14T02:52:35;8.18;;;3.70;;
61756;SDS011;57225;61.460;24.060;2023-12-14T02:55:20;10.27;;;4.20;;
61756;SDS011;57225;61.460;24.060;2023-12-14T02:58:05;11.98;;;3.67;;
61756;SDS011;57225;61.460;24.060;2023-12-14T03:00:49;14.68;;;4.57;;
61756;SDS011;57225;61.460;24.060;2023-12-14T03:03:37;9.80;;;3.67;;
61756;SDS011;57225;61.460;24.060;2023-12-14T03:06:22;11.65;;;4.28;;
61756;SDS011;57225;61.460;24.060;2023-12-14T03:09:07;10.82;;;4.40;;
61756;SDS011;57225;61.460;24.060;2023-12-14T03:11:51;8.85;;;4.03;;
61756;SDS011;57225;61.460;24.060;2023-12-14T03:14:35;15.80;;;3.90;;
61756;SDS011;57225;61.460;24.060;2023-12-14T03:17:20;15.95;;;4.72;;
61756;SDS011;57225;61.460;24.060;2023-12-14T03:20:04;10.73;;;4.00;;
61756;SDS011;57225;61.460;24.060;2023-12-14T03:22:50;11.43;;;4.25;;
61756;SDS011;57225;61.460;24.060;2023-12-14T03:25:34;10.70;;;4.28;;
61756;SDS011;57225;61.460;24.060;2023-12-14T03:28:18;8.60;;;4.47;;
61756;SDS011;57225;61.460;24.060;2023-12-14T03:31:03;10.95;;;4.45;;
61756;SDS011;57225;61.460;24.060;2023-12-14T03:33:48;11.20;;;4.30;;
61756;SDS011;57225;61.460;24.060;2023-12-14T03:36:33;11.88;;;4.15;;
61756;SDS011;57225;61.460;24.060;2023-12-14T03:39:17;9.00;;;4.15;;
61756;SDS011;57225;61.460;24.060;2023-12-14T03:42:02;8.82;;;4.03;;
61756;SDS011;57225;61.460;24.060;2023-12-14T03:44:46;14.02;;;5.07;;
61756;SDS011;57225;61.460;24.060;2023-12-14T03:47:30;10.65;;;4.18;;
61756;SDS011;57225;61.460;24.060;2023-12-14T03:50:15;11.73;;;4.40;;
61756;SDS011;57225;61.460;24.060;2023-12-14T03:52:59;10.95;;;4.20;;
61756;SDS011;57225;61.460;24.060;2023-12-14T03:55:44;10.13;;;4.10;;
61756;SDS011;57225;61.460;24.060;2023-12-14T03:58:28;14.05;;;4.30;;
61756;SDS011;57225;61.460;24.060;2023-12-14T04:01:19;9.40;;;4.30;;
61756;SDS011;57225;61.460;24.060;2023-12-14T04:04:04;11.25;;;4.55;;
61756;SDS011;57225;61.460;24.060;2023-12-14T04:06:49;6.65;;;3.28;;
61756;SDS011;57225;61.460;24.060;2023-12-14T04:09:35;11.75;;;4.55;;
61756;SDS011;57225;61.460;24.060;2023-12-14T04:12:19;8.77;;;3.97;;
61756;SDS011;57225;61.460;24.060;2023-12-14T04:15:04;7.70;;;3.50;;
61756;SDS011;57225;61.460;24.060;2023-12-14T04:17:51;13.55;;;4.53;;
61756;SDS011;57225;61.460;24.060;2023-12-14T04:20:35;11.30;;;4.05;;
61756;SDS011;57225;61.460;24.060;2023-12-14T04:23:19;10.30;;;4.28;;
61756;SDS011;57225;61.460;24.060;2023-12-14T04:26:04;8.98;;;3.47;;
61756;SDS011;57225;61.460;24.060;2023-12-14T04:28:48;11.45;;;4.50;;
61756;SDS011;57225;61.460;24.060;2023-12-14T04:31:34;9.75;;;4.13;;
61756;SDS011;57225;61.460;24.060;2023-12-14T04:34:19;9.30;;;4.10;;
61756;SDS011;57225;61.460;24.060;2023-12-14T04:37:04;8.55;;;4.05;;
61756;SDS011;57225;61.460;24.060;2023-12-14T04:39:48;9.30;;;4.03;;
61756;SDS011;57225;61.460;24.060;2023-12-14T04:42:34;7.63;;;4.18;;
61756;SDS011;57225;61.460;24.060;2023-12-14T04:45:18;11.30;;;4.50;;
61756;SDS011;57225;61.460;24.060;2023-12-14T04:48:03;10.43;;;4.22;;
61756;SDS011;57225;61.460;24.060;2023-12-14T04:50:47;11.85;;;4.55;;
61756;SDS011;57225;61.460;24.060;2023-12-14T04:53:32;9.45;;;4.50;;
61756;SDS011;57225;61.460;24.060;2023-12-14T04:56:16;11.43;;;4.97;;
61756;SDS011;57225;61.460;24.060;2023-12-14T04:59:00;10.80;;;4.40;;
61756;SDS011;57225;61.460;24.060;2023-12-14T05:01:45;9.90;;;4.30;;
61756;SDS011;57225;61.460;24.060;2023-12-14T05:04:29;11.20;;;4.65;;
61756;SDS011;57225;61.460;24.060;2023-12-14T05:07:14;10.82;;;4.85;;
61756;SDS011;57225;61.460;24.060;2023-12-14T05:09:59;12.05;;;4.80;;
61756;SDS011;57225;61.460;24.060;2023-12-14T05:12:44;13.07;;;5.20;;
61756;SDS011;57225;61.460;24.060;2023-12-14T05:15:28;11.77;;;5.05;;
61756;SDS011;57225;61.460;24.060;2023-12-14T05:18:13;11.60;;;5.15;;
61756;SDS011;57225;61.460;24.060;2023-12-14T05:20:59;12.52;;;4.65;;
61756;SDS011;57225;61.460;24.060;2023-12-14T05:23:44;10.35;;;4.82;;
61756;SDS011;57225;61.460;24.060;2023-12-14T05:26:28;37.60;;;12.40;;
61756;SDS011;57225;61.460;24.060;2023-12-14T05:29:13;108.25;;;32.70;;
61756;SDS011;57225;61.460;24.060;2023-12-14T05:31:57;16.00;;;6.65;;
61756;SDS011;57225;61.460;24.060;2023-12-14T05:34:42;17.35;;;5.60;;
61756;SDS011;57225;61.460;24.060;2023-12-14T05:37:26;12.25;;;5.18;;
61756;SDS011;57225;61.460;24.060;2023-12-14T05:40:11;13.35;;;5.50;;
61756;SDS011;57225;61.460;24.060;2023-12-14T05:42:55;13.50;;;4.78;;
61756;SDS011;57225;61.460;24.060;2023-12-14T05:45:43;12.38;;;4.80;;
61756;SDS011;57225;61.460;24.060;2023-12-14T05:48:49;10.70;;;4.88;;
61756;SDS011;57225;61.460;24.060;2023-12-14T05:51:34;11.45;;;4.63;;
61756;SDS011;57225;61.460;24.060;2023-12-14T05:54:19;12.38;;;4.80;;
61756;SDS011;57225;61.460;24.060;2023-12-14T05:57:04;13.38;;;5.60;;
61756;SDS011;57225;61.460;24.060;2023-12-14T05:59:50;15.68;;;5.68;;
61756;SDS011;57225;61.460;24.060;2023-12-14T06:02:35;15.00;;;6.47;;
61756;SDS011;57225;61.460;24.060;2023-12-14T06:05:20;12.60;;;5.57;;
61756;SDS011;57225;61.460;24.060;2023-12-14T06:08:05;14.88;;;6.57;;
61756;SDS011;57225;61.460;24.060;2023-12-14T06:10:49;14.50;;;6.25;;
61756;SDS011;57225;61.460;24.060;2023-12-14T06:13:34;15.85;;;5.80;;
61756;SDS011;57225;61.460;24.060;2023-12-14T06:16:18;15.20;;;6.13;;
61756;SDS011;57225;61.460;24.060;2023-12-14T06:19:02;15.35;;;5.90;;
61756;SDS011;57225;61.460;24.060;2023-12-14T06:21:47;17.17;;;6.30;;
61756;SDS011;57225;61.460;24.060;2023-12-14T06:24:32;13.85;;;5.53;;
61756;SDS011;57225;61.460;24.060;2023-12-14T06:27:16;16.10;;;6.13;;
61756;SDS011;57225;61.460;24.060;2023-12-14T06:30:00;12.23;;;5.68;;
61756;SDS011;57225;61.460;24.060;2023-12-14T06:32:46;15.07;;;6.03;;
61756;SDS011;57225;61.460;24.060;2023-12-14T06:35:30;21.48;;;5.85;;
61756;SDS011;57225;61.460;24.060;2023-12-14T06:38:15;13.77;;;5.55;;
61756;SDS011;57225;61.460;24.060;2023-12-14T06:41:00;17.15;;;6.93;;
61756;SDS011;57225;61.460;24.060;2023-12-14T06:43:48;14.95;;;5.35;;
61756;SDS011;57225;61.460;24.060;2023-12-14T06:46:32;14.65;;;5.80;;
61756;SDS011;57225;61.460;24.060;2023-12-14T06:49:17;14.38;;;5.72;;
61756;SDS011;57225;61.460;24.060;2023-12-14T06:52:01;15.00;;;6.10;;
61756;SDS011;57225;61.460;24.060;2023-12-14T06:54:46;17.10;;;6.28;;
61756;SDS011;57225;61.460;24.060;2023-12-14T06:57:31;14.70;;;5.50;;
61756;SDS011;57225;61.460;24.060;2023-12-14T07:00:15;14.80;;;5.78;;
61756;SDS011;57225;61.460;24.060;2023-12-14T07:03:00;13.43;;;5.38;;
61756;SDS011;57225;61.460;24.060;2023-12-14T07:05:45;12.57;;;5.35;;
61756;SDS011;57225;61.460;24.060;2023-12-14T07:08:29;12.10;;;5.05;;
61756;SDS011;57225;61.460;24.060;2023-12-14T07:11:15;17.27;;;5.85;;
61756;SDS011;57225;61.460;24.060;2023-12-14T07:13:59;12.07;;;5.18;;
61756;SDS011;57225;61.460;24.060;2023-12-14T07:16:44;18.25;;;5.95;;
61756;SDS011;57225;61.460;24.060;2023-12-14T07:19:28;15.82;;;6.05;;
61756;SDS011;57225;61.460;24.060;2023-12-14T07:22:13;13.73;;;5.90;;
61756;SDS011;57225;61.460;24.060;2023-12-14T07:24:57;11.93;;;5.47;;
61756;SDS011;57225;61.460;24.060;2023-12-14T07:27:42;12.23;;;5.28;;
61756;SDS011;57225;61.460;24.060;2023-12-14T07:30:27;19.13;;;6.22;;
61756;SDS011;57225;61.460;24.060;2023-12-14T07:33:11;14.60;;;5.35;;
61756;SDS011;57225;61.460;24.060;2023-12-14T07:35:55;20.25;;;6.93;;
61756;SDS011;57225;61.460;24.060;2023-12-14T07:38:40;12.82;;;5.80;;
61756;SDS011;57225;61.460;24.060;2023-12-14T07:41:25;15.50;;;6.05;;
61756;SDS011;57225;61.460;24.060;2023-12-14T07:44:13;17.53;;;6.17;;
61756;SDS011;57225;61.460;24.060;2023-12-14T07:47:00;12.93;;;5.65;;
61756;SDS011;57225;61.460;24.060;2023-12-14T07:49:46;12.93;;;6.05;;
61756;SDS011;57225;61.460;24.060;2023-12-14T07:52:30;15.52;;;5.93;;
61756;SDS011;57225;61.460;24.060;2023-12-14T07:55:15;14.45;;;6.18;;
61756;SDS011;57225;61.460;24.060;2023-12-14T07:57:59;13.57;;;5.95;;
61756;SDS011;57225;61.460;24.060;2023-12-14T08:00:44;12.73;;;5.57;;
61756;SDS011;57225;61.460;24.060;2023-12-14T08:03:28;14.50;;;5.95;;
61756;SDS011;57225;61.460;24.060;2023-12-14T08:06:13;16.90;;;6.38;;
61756;SDS011;57225;61.460;24.060;2023-12-14T08:08:57;14.05;;;6.18;;
61756;SDS011;57225;61.460;24.060;2023-12-14T08:11:42;13.40;;;5.47;;
61756;SDS011;57225;61.460;24.060;2023-12-14T08:14:26;14.52;;;6.68;;
61756;SDS011;57225;61.460;24.060;2023-12-14T08:17:12;15.65;;;6.20;;
61756;SDS011;57225;61.460;24.060;2023-12-14T08:19:56;13.50;;;5.95;;
61756;SDS011;57225;61.460;24.060;2023-12-14T08:22:41;12.60;;;6.20;;
61756;SDS011;57225;61.460;24.060;2023-12-14T08:25:28;12.00;;;5.55;;
61756;SDS011;57225;61.460;24.060;2023-12-14T08:28:12;14.35;;;5.45;;
61756;SDS011;57225;61.460;24.060;2023-12-14T08:30:57;11.10;;;5.78;;
61756;SDS011;57225;61.460;24.060;2023-12-14T08:33:42;19.25;;;6.95;;
61756;SDS011;57225;61.460;24.060;2023-12-14T08:36:27;13.68;;;6.45;;
61756;SDS011;57225;61.460;24.060;2023-12-14T08:39:11;14.60;;;6.07;;
61756;SDS011;57225;61.460;24.060;2023-12-14T08:41:56;15.68;;;6.55;;
61756;SDS011;57225;61.460;24.060;2023-12-14T08:44:40;14.48;;;6.38;;
61756;SDS011;57225;61.460;24.060;2023-12-14T08:47:25;16.08;;;6.57;;
61756;SDS011;57225;61.460;24.060;2023-12-14T08:50:09;15.77;;;6.35;;
61756;SDS011;57225;61.460;24.060;2023-12-14T08:52:54;15.40;;;6.63;;
61756;SDS011;57225;61.460;24.060;2023-12-14T08:55:38;15.85;;;7.05;;
61756;SDS011;57225;61.460;24.060;2023-12-14T08:58:23;17.20;;;6.68;;
61756;SDS011;57225;61.460;24.060;2023-12-14T09:01:07;15.25;;;6.13;;
61756;SDS011;57225;61.460;24.060;2023-12-14T09:03:52;17.52;;;6.72;;
61756;SDS011;57225;61.460;24.060;2023-12-14T09:06:36;14.13;;;6.43;;
61756;SDS011;57225;61.460;24.060;2023-12-14T09:09:21;14.32;;;6.82;;
61756;SDS011;57225;61.460;24.060;2023-12-14T09:12:05;16.48;;;6.95;;
61756;SDS011;57225;61.460;24.060;2023-12-14T09:14:50;14.23;;;6.78;;
61756;SDS011;57225;61.460;24.060;2023-12-14T09:17:34;18.95;;;7.32;;
61756;SDS011;57225;61.460;24.060;2023-12-14T09:20:19;11.35;;;5.93;;
61756;SDS011;57225;61.460;24.060;2023-12-14T09:23:03;12.82;;;5.80;;
61756;SDS011;57225;61.460;24.060;2023-12-14T09:25:48;13.70;;;6.20;;
61756;SDS011;57225;61.460;24.060;2023-12-14T09:28:33;13.13;;;5.45;;
61756;SDS011;57225;61.460;24.060;2023-12-14T09:31:18;10.27;;;5.40;;
61756;SDS011;57225;61.460;24.060;2023-12-14T09:34:03;13.18;;;6.45;;
61756;SDS011;57225;61.460;24.060;2023-12-14T09:36:48;13.75;;;6.25;;
61756;SDS011;57225;61.460;24.060;2023-12-14T09:39:32;16.38;;;6.80;;
61756;SDS011;57225;61.460;24.060;2023-12-14T09:42:20;13.20;;;6.15;;
61756;SDS011;57225;61.460;24.060;2023-12-14T09:45:09;13.02;;;5.70;;
61756;SDS011;57225;61.460;24.060;2023-12-14T09:47:54;14.35;;;5.88;;
61756;SDS011;57225;61.460;24.060;2023-12-14T09:50:39;15.70;;;6.70;;
61756;SDS011;57225;61.460;24.060;2023-12-14T09:53:24;13.07;;;6.35;;
61756;SDS011;57225;61.460;24.060;2023-12-14T09:56:09;14.05;;;6.90;;
61756;SDS011;57225;61.460;24.060;2023-12-14T09:58:53;15.13;;;6.28;;
61756;SDS011;57225;61.460;24.060;2023-12-14T10:01:38;11.93;;;6.20;;
61756;SDS011;57225;61.460;24.060;2023-12-14T10:04:22;11.57;;;5.72;;
61756;SDS011;57225;61.460;24.060;2023-12-14T10:07:08;12.02;;;5.40;;
61756;SDS011;57225;61.460;24.060;2023-12-14T10:09:52;13.30;;;5.85;;
61756;SDS011;57225;61.460;24.060;2023-12-14T10:12:52;11.27;;;5.47;;
61756;SDS011;57225;61.460;24.060;2023-12-14T10:15:44;10.98;;;5.53;;
61756;SDS011;57225;61.460;24.060;2023-12-14T10:18:31;11.85;;;5.72;;
61756;SDS011;57225;61.460;24.060;2023-12-14T10:21:17;12.18;;;5.75;;
61756;SDS011;57225;61.460;24.060;2023-12-14T10:24:02;12.32;;;5.82;;
61756;SDS011;57225;61.460;24.060;2023-12-14T10:26:47;14.07;;;5.72;;
61756;SDS011;57225;61.460;24.060;2023-12-14T10:29:32;11.40;;;5.47;;
61756;SDS011;57225;61.460;24.060;2023-12-14T10:32:18;12.52;;;5.60;;
61756;SDS011;57225;61.460;24.060;2023-12-14T10:35:03;12.65;;;5.80;;
61756;SDS011;57225;61.460;24.060;2023-12-14T10:37:51;12.90;;;6.25;;
61756;SDS011;57225;61.460;24.060;2023-12-14T10:40:36;10.52;;;5.32;;
61756;SDS011;57225;61.460;24.060;2023-12-14T10:43:24;12.15;;;6.10;;
61756;SDS011;57225;61.460;24.060;2023-12-14T10:46:10;10.77;;;5.90;;
61756;SDS011;57225;61.460;24.060;2023-12-14T10:48:56;11.00;;;5.85;;
61756;SDS011;57225;61.460;24.060;2023-12-14T10:51:41;11.13;;;5.68;;
61756;SDS011;57225;61.460;24.060;2023-12-14T10:54:26;11.40;;;6.00;;
61756;SDS011;57225;61.460;24.060;2023-12-14T10:57:11;11.50;;;6.18;;
61756;SDS011;57225;61.460;24.060;2023-12-14T11:00:02;13.52;;;6.15;;
61756;SDS011;57225;61.460;24.060;2023-12-14T11:02:51;14.57;;;6.40;;
61756;SDS011;57225;61.460;24.060;2023-12-14T11:05:36;12.95;;;6.65;;
61756;SDS011;57225;61.460;24.060;2023-12-14T11:08:21;11.20;;;5.82;;
61756;SDS011;57225;61.460;24.060;2023-12-14T11:11:07;14.32;;;6.72;;
61756;SDS011;57225;61.460;24.060;2023-12-14T11:13:55;9.90;;;5.60;;
61756;SDS011;57225;61.460;24.060;2023-12-14T11:16:40;11.70;;;5.53;;
61756;SDS011;57225;61.460;24.060;2023-12-14T11:19:30;12.70;;;6.30;;
61756;SDS011;57225;61.460;24.060;2023-12-14T11:22:22;12.38;;;6.45;;
61756;SDS011;57225;61.460;24.060;2023-12-14T11:25:08;16.20;;;6.70;;
61756;SDS011;57225;61.460;24.060;2023-12-14T11:27:53;12.25;;;6.45;;
61756;SDS011;57225;61.460;24.060;2023-12-14T11:30:38;10.65;;;5.78;;
61756;SDS011;57225;61.460;24.060;2023-12-14T11:33:22;14.60;;;6.20;;
61756;SDS011;57225;61.460;24.060;2023-12-14T11:36:07;13.57;;;5.93;;
61756;SDS011;57225;61.460;24.060;2023-12-14T11:38:52;11.05;;;6.10;;
61756;SDS011;57225;61.460;24.060;2023-12-14T11:41:38;11.65;;;6.05;;
61756;SDS011;57225;61.460;24.060;2023-12-14T11:44:24;13.07;;;6.38;;
61756;SDS011;57225;61.460;24.060;2023-12-14T11:47:09;14.73;;;6.43;;
61756;SDS011;57225;61.460;24.060;2023-12-14T11:49:53;13.65;;;6.15;;
61756;SDS011;57225;61.460;24.060;2023-12-14T11:52:38;13.13;;;6.15;;
61756;SDS011;57225;61.460;24.060;2023-12-14T11:55:22;12.88;;;6.43;;
61756;SDS011;57225;61.460;24.060;2023-12-14T11:58:07;12.63;;;5.97;;
61756;SDS011;57225;61.460;24.060;2023-12-14T12:00:51;12.15;;;6.43;;
61756;SDS011;57225;61.460;24.060;2023-12-14T12:03:36;13.15;;;6.20;;
61756;SDS011;57225;61.460;24.060;2023-12-14T12:06:24;13.73;;;6.63;;
61756;SDS011;57225;61.460;24.060;2023-12-14T12:09:11;13.32;;;6.80;;
61756;SDS011;57225;61.460;24.060;2023-12-14T12:11:57;14.02;;;6.68;;
61756;SDS011;57225;61.460;24.060;2023-12-14T12:14:41;12.70;;;6.85;;
61756;SDS011;57225;61.460;24.060;2023-12-14T12:17:26;14.77;;;7.00;;
61756;SDS011;57225;61.460;24.060;2023-12-14T12:20:11;12.95;;;6.53;;
61756;SDS011;57225;61.460;24.060;2023-12-14T12:22:56;18.13;;;7.10;;
61756;SDS011;57225;61.460;24.060;2023-12-14T12:25:40;14.70;;;6.70;;
61756;SDS011;57225;61.460;24.060;2023-12-14T12:28:25;13.45;;;6.85;;
61756;SDS011;57225;61.460;24.060;2023-12-14T12:31:09;15.13;;;7.68;;
61756;SDS011;57225;61.460;24.060;2023-12-14T12:33:54;15.50;;;7.13;;
61756;SDS011;57225;61.460;24.060;2023-12-14T12:36:38;16.25;;;7.53;;
61756;SDS011;57225;61.460;24.060;2023-12-14T12:39:23;16.48;;;7.85;;
61756;SDS011;57225;61.460;24.060;2023-12-14T12:42:07;17.35;;;8.25;;
61756;SDS011;57225;61.460;24.060;2023-12-14T12:44:52;14.65;;;7.72;;
61756;SDS011;57225;61.460;24.060;2023-12-14T12:47:36;16.40;;;7.50;;
61756;SDS011;57225;61.460;24.060;2023-12-14T12:50:21;17.63;;;8.13;;
61756;SDS011;57225;61.460;24.060;2023-12-14T12:53:05;17.60;;;8.38;;
61756;SDS011;57225;61.460;24.060;2023-12-14T12:55:50;16.52;;;8.70;;
61756;SDS011;57225;61.460;24.060;2023-12-14T12:58:34;22.48;;;9.23;;
61756;SDS011;57225;61.460;24.060;2023-12-14T13:01:19;21.15;;;8.82;;
61756;SDS011;57225;61.460;24.060;2023-12-14T13:04:17;17.48;;;8.63;;
61756;SDS011;57225;61.460;24.060;2023-12-14T13:07:02;20.50;;;7.90;;
61756;SDS011;57225;61.460;24.060;2023-12-14T13:09:48;19.40;;;9.07;;
61756;SDS011;57225;61.460;24.060;2023-12-14T13:12:32;16.20;;;8.05;;
61756;SDS011;57225;61.460;24.060;2023-12-14T13:15:17;17.73;;;8.45;;
61756;SDS011;57225;61.460;24.060;2023-12-14T13:18:02;18.80;;;8.05;;
61756;SDS011;57225;61.460;24.060;2023-12-14T13:20:47;19.70;;;8.80;;
61756;SDS011;57225;61.460;24.060;2023-12-14T13:23:32;18.42;;;8.88;;
61756;SDS011;57225;61.460;24.060;2023-12-14T13:26:16;20.20;;;8.90;;
61756;SDS011;57225;61.460;24.060;2023-12-14T13:29:01;24.85;;;10.18;;
61756;SDS011;57225;61.460;24.060;2023-12-14T13:31:47;21.25;;;9.05;;
61756;SDS011;57225;61.460;24.060;2023-12-14T13:34:32;20.45;;;9.02;;
61756;SDS011;57225;61.460;24.060;2023-12-14T13:37:16;20.17;;;9.38;;
61756;SDS011;57225;61.460;24.060;2023-12-14T13:40:01;17.02;;;8.77;;
61756;SDS011;57225;61.460;24.060;2023-12-14T13:42:47;20.40;;;9.32;;
61756;SDS011;57225;61.460;24.060;2023-12-14T13:48:47;24.30;;;9.07;;
61756;SDS011;57225;61.460;24.060;2023-12-14T13:51:32;24.02;;;10.40;;
61756;SDS011;57225;61.460;24.060;2023-12-14T13:54:16;23.80;;;11.10;;
61756;SDS011;57225;61.460;24.060;2023-12-14T13:57:01;32.28;;;11.32;;
61756;SDS011;57225;61.460;24.060;2023-12-14T13:59:46;26.45;;;10.98;;
61756;SDS011;57225;61.460;24.060;2023-12-14T14:02:30;23.08;;;10.75;;
61756;SDS011;57225;61.460;24.060;2023-12-14T14:05:14;20.08;;;9.93;;
61756;SDS011;57225;61.460;24.060;2023-12-14T14:07:59;24.17;;;9.75;;
61756;SDS011;57225;61.460;24.060;2023-12-14T14:10:44;19.95;;;9.38;;
61756;SDS011;57225;61.460;24.060;2023-12-14T14:13:28;23.90;;;10.68;;
61756;SDS011;57225;61.460;24.060;2023-12-14T14:16:13;24.00;;;10.13;;
61756;SDS011;57225;61.460;24.060;2023-12-14T14:18:57;19.95;;;9.27;;
61756;SDS011;57225;61.460;24.060;2023-12-14T14:21:42;22.50;;;10.00;;
61756;SDS011;57225;61.460;24.060;2023-12-14T14:24:27;18.98;;;9.07;;
61756;SDS011;57225;61.460;24.060;2023-12-14T14:27:11;19.20;;;8.10;;
61756;SDS011;57225;61.460;24.060;2023-12-14T14:29:56;16.45;;;9.02;;
61756;SDS011;57225;61.460;24.060;2023-12-14T14:32:40;18.05;;;8.55;;
61756;SDS011;57225;61.460;24.060;2023-12-14T14:35:25;17.27;;;8.95;;
61756;SDS011;57225;61.460;24.060;2023-12-14T14:38:09;19.55;;;9.00;;
61756;SDS011;57225;61.460;24.060;2023-12-14T14:40:54;17.88;;;9.15;;
61756;SDS011;57225;61.460;24.060;2023-12-14T14:43:38;18.55;;;9.15;;
61756;SDS011;57225;61.460;24.060;2023-12-14T14:46:23;18.42;;;8.80;;
61756;SDS011;57225;61.460;24.060;2023-12-14T14:49:07;16.73;;;8.32;;
61756;SDS011;57225;61.460;24.060;2023-12-14T14:51:52;20.88;;;8.70;;
61756;SDS011;57225;61.460;24.060;2023-12-14T14:54:36;17.45;;;8.75;;
61756;SDS011;57225;61.460;24.060;2023-12-14T14:57:20;19.33;;;8.98;;
61756;SDS011;57225;61.460;24.060;2023-12-14T15:00:05;16.20;;;7.75;;
61756;SDS011;57225;61.460;24.060;2023-12-14T15:02:50;20.75;;;8.77;;
61756;SDS011;57225;61.460;24.060;2023-12-14T15:05:35;18.85;;;9.07;;
61756;SDS011;57225;61.460;24.060;2023-12-14T15:08:20;18.42;;;9.65;;
61756;SDS011;57225;61.460;24.060;2023-12-14T15:11:05;20.55;;;9.10;;
61756;SDS011;57225;61.460;24.060;2023-12-14T15:13:53;23.67;;;10.45;;
61756;SDS011;57225;61.460;24.060;2023-12-14T15:16:38;20.17;;;9.85;;
61756;SDS011;57225;61.460;24.060;2023-12-14T15:19:22;22.00;;;9.57;;
61756;SDS011;57225;61.460;24.060;2023-12-14T15:22:07;21.40;;;9.57;;
61756;SDS011;57225;61.460;24.060;2023-12-14T15:24:51;22.05;;;9.70;;
61756;SDS011;57225;61.460;24.060;2023-12-14T15:27:36;20.20;;;9.73;;
61756;SDS011;57225;61.460;24.060;2023-12-14T15:30:21;20.20;;;9.35;;
61756;SDS011;57225;61.460;24.060;2023-12-14T15:33:05;18.83;;;9.40;;
61756;SDS011;57225;61.460;24.060;2023-12-14T15:35:50;21.40;;;9.88;;
61756;SDS011;57225;61.460;24.060;2023-12-14T15:38:34;20.52;;;9.63;;
61756;SDS011;57225;61.460;24.060;2023-12-14T15:41:18;26.25;;;10.68;;
61756;SDS011;57225;61.460;24.060;2023-12-14T15:44:03;24.30;;;10.73;;
61756;SDS011;57225;61.460;24.060;2023-12-14T15:46:47;20.65;;;9.10;;
61756;SDS011;57225;61.460;24.060;2023-12-14T15:49:32;20.60;;;9.43;;
61756;SDS011;57225;61.460;24.060;2023-12-14T15:52:16;19.17;;;9.10;;
61756;SDS011;57225;61.460;24.060;2023-12-14T15:55:01;25.15;;;10.35;;
61756;SDS011;57225;61.460;24.060;2023-12-14T15:57:46;18.98;;;8.35;;
61756;SDS011;57225;61.460;24.060;2023-12-14T16:00:31;20.27;;;9.63;;
61756;SDS011;57225;61.460;24.060;2023-12-14T16:03:17;18.33;;;9.05;;
61756;SDS011;57225;61.460;24.060;2023-12-14T16:06:01;20.77;;;9.18;;
61756;SDS011;57225;61.460;24.060;2023-12-14T16:08:45;21.60;;;8.88;;
61756;SDS011;57225;61.460;24.060;2023-12-14T16:11:30;22.42;;;9.05;;